Time;durP1;ratioP1;P1;durP2;ratioP2;P2;SDS_P1;SDS_P2;PMS_P1;PMS_P2;Temp;Humidity;BMP_temperature;BMP_pressure;BME280_temperature;BME280_humidity;BME280_pressure;Samples;Min_cycle;Max_cycle;Signal;HPM_P1;HPM_P2
2022/01/30 00:00:32;;;;;;;2.10;1.90;;;;;;;4.23;100.00;96394.75;5019583;28;20202;-79
2022/01/30 00:02:57;;;;;;;1.50;1.40;;;;;;;4.20;100.00;96389.81;5035789;28;20759;-78
2022/01/30 00:05:23;;;;;;;2.60;1.70;;;;;;;4.21;100.00;96377.78;5019945;28;20182;-77
2022/01/30 00:07:48;;;;;;;1.93;1.80;;;;;;;4.25;100.00;96377.53;5019694;28;20776;-79
2022/01/30 00:10:14;;;;;;;2.13;1.57;;;;;;;4.23;100.00;96369.06;5019681;28;20291;-79
2022/01/30 00:12:51;;;;;;;2.40;1.93;;;;;;;4.28;100.00;96379.09;5035704;28;20176;-78
2022/01/30 00:15:18;;;;;;;1.87;1.77;;;;;;;4.26;100.00;96380.94;5035006;28;20174;-78
2022/01/30 00:17:51;;;;;;;3.00;1.60;;;;;;;4.27;100.00;96369.72;5019991;28;20186;-78
2022/01/30 00:20:23;;;;;;;2.20;1.63;;;;;;;4.35;100.00;96387.28;5035725;28;20283;-78
2022/01/30 00:22:56;;;;;;;3.00;1.90;;;;;;;4.38;100.00;96387.09;5019782;28;20251;-79
2022/01/30 00:25:32;;;;;;;4.40;3.13;;;;;;;4.40;100.00;96377.53;5036401;28;20182;-80
2022/01/30 00:28:05;;;;;;;2.27;1.93;;;;;;;4.41;100.00;96379.19;5021131;28;20178;-77
2022/01/30 00:30:35;;;;;;;2.47;2.27;;;;;;;4.35;100.00;96393.25;5036757;28;20544;-78
2022/01/30 00:33:02;;;;;;;2.80;2.37;;;;;;;4.44;100.00;96385.00;5035672;28;20642;-78
2022/01/30 00:35:27;;;;;;;3.30;2.30;;;;;;;4.41;100.00;96379.19;5036935;28;20251;-79
2022/01/30 00:37:54;;;;;;;2.23;2.03;;;;;;;4.44;100.00;96371.31;5036663;28;20194;-78
2022/01/30 00:40:19;;;;;;;2.87;2.57;;;;;;;4.47;100.00;96365.97;5019668;28;20293;-78
2022/01/30 00:42:44;;;;;;;2.77;2.57;;;;;;;4.47;100.00;96355.69;5035372;28;20583;-79
2022/01/30 00:45:10;;;;;;;2.90;2.60;;;;;;;4.46;100.00;96372.88;5036394;28;20197;-78
2022/01/30 00:47:35;;;;;;;3.20;2.63;;;;;;;4.49;100.00;96357.25;5037364;28;20242;-79
2022/01/30 00:50:00;;;;;;;3.00;2.70;;;;;;;4.56;100.00;96344.84;5037213;28;20212;-79
2022/01/30 00:52:26;;;;;;;3.90;2.80;;;;;;;4.44;100.00;96355.88;5020051;28;20236;-78
2022/01/30 00:54:51;;;;;;;3.23;2.70;;;;;;;4.40;100.00;96367.25;5036919;28;20753;-79
2022/01/30 00:57:16;;;;;;;4.27;2.80;;;;;;;4.42;100.00;96380.88;5020661;28;20217;-78
2022/01/30 00:59:41;;;;;;;3.33;2.33;;;;;;;4.44;100.00;96371.31;5036243;28;20210;-79
2022/01/30 01:02:07;;;;;;;2.40;2.00;;;;;;;4.40;100.00;96372.38;5035444;28;20212;-79
2022/01/30 01:04:32;;;;;;;3.37;2.80;;;;;;;4.42;100.00;96368.84;5036479;28;20182;-78
2022/01/30 01:06:57;;;;;;;4.83;2.80;;;;;;;4.43;100.00;96372.22;5019049;28;20254;-80
2022/01/30 01:09:30;;;;;;;3.70;2.77;;;;;;;4.41;100.00;96374.88;5035730;28;20205;-77
2022/01/30 01:25:22;;;;;;;4.30;2.57;;;;;;;4.68;100.00;96381.88;5038370;28;20206;-77
2022/01/30 01:27:47;;;;;;;2.73;2.20;;;;;;;4.60;100.00;96372.06;5037715;28;20189;-78
2022/01/30 01:30:13;;;;;;;2.30;2.10;;;;;;;4.63;100.00;96368.47;5037867;28;20205;-77
2022/01/30 01:32:38;;;;;;;2.67;1.80;;;;;;;4.54;100.00;96362.97;5053698;28;20690;-78
2022/01/30 01:35:04;;;;;;;1.40;1.30;;;;;;;4.59;100.00;96377.28;5054336;28;20181;-79
2022/01/30 01:37:29;;;;;;;1.33;1.10;;;;;;;4.61;100.00;96380.59;5038517;28;20197;-78
2022/01/30 01:39:54;;;;;;;1.60;1.13;;;;;;;4.61;100.00;96372.88;5037135;28;20200;-77
2022/01/30 01:42:20;;;;;;;1.13;1.03;;;;;;;4.58;100.00;96371.31;5037481;28;20266;-78
2022/01/30 01:44:49;;;;;;;1.80;1.27;;;;;;;4.57;100.00;96377.38;5055001;28;20682;-78
2022/01/30 01:47:18;;;;;;;1.70;1.40;;;;;;;4.60;100.00;96384.94;5055083;28;20177;-79
2022/01/30 01:49:45;;;;;;;3.10;1.37;;;;;;;4.58;100.00;96383.34;5055322;28;20202;-80
2022/01/30 01:54:43;;;;;;;2.73;1.60;;;;;;;4.53;100.00;96392.16;5057537;28;20655;-79
2022/01/30 01:57:08;;;;;;;2.63;1.70;;;;;;;4.50;100.00;96389.75;5055985;28;20222;-79
2022/01/30 01:59:34;;;;;;;1.80;1.50;;;;;;;4.50;100.00;96407.75;5055032;28;20217;-79
2022/01/30 02:02:01;;;;;;;2.77;2.13;;;;;;;4.52;100.00;96392.28;5038415;28;20185;-79
2022/01/30 02:04:27;;;;;;;1.67;1.57;;;;;;;4.47;100.00;96394.28;5055421;28;20233;-79
2022/01/30 02:07:12;;;;;;;2.23;2.03;;;;;;;4.41;100.00;96402.34;5038230;28;20184;-80
2022/01/30 02:09:38;;;;;;;2.30;1.70;;;;;;;4.45;100.00;96394.38;5041544;28;20245;-79
2022/01/30 02:12:04;;;;;;;3.00;2.37;;;;;;;4.52;100.00;96407.69;5038465;28;20235;-79
2022/01/30 02:27:56;;;;;;;2.73;1.97;;;;;;;4.36;100.00;96400.03;5034080;28;20594;-78
2022/01/30 02:30:24;;;;;;;2.07;1.63;;;;;;;4.46;100.00;96400.34;5034060;28;20661;-78
2022/01/30 02:32:51;;;;;;;4.13;1.67;;;;;;;4.41;100.00;96402.34;5032518;28;20522;-77
2022/01/30 02:35:16;;;;;;;3.23;1.50;;;;;;;4.41;100.00;96387.72;5035426;28;20184;-78
2022/01/30 02:37:41;;;;;;;2.50;1.57;;;;;;;4.37;100.00;96385.44;5034137;28;20186;-78
2022/01/30 02:40:11;;;;;;;1.40;1.30;;;;;;;4.41;100.00;96380.00;5038024;28;20704;-79
2022/01/30 02:42:40;;;;;;;1.33;1.23;;;;;;;4.38;100.00;96397.38;5021612;28;20256;-78
2022/01/30 02:45:09;;;;;;;1.80;1.60;;;;;;;4.36;100.00;96381.22;5049199;28;20170;-79
2022/01/30 02:52:36;;;;;;;3.27;2.20;;;;;;;4.25;100.00;96379.28;5036463;28;20174;-80
2022/01/30 02:55:03;;;;;;;1.63;1.53;;;;;;;4.21;100.00;96352.91;5020392;28;20808;-80
2022/01/30 02:57:29;;;;;;;1.50;1.40;;;;;;;4.24;100.00;96373.31;5036842;28;20190;-80
2022/01/30 02:59:54;;;;;;;1.43;1.30;;;;;;;4.18;100.00;96376.22;5036859;28;20203;-80
2022/01/30 03:02:19;;;;;;;2.07;1.33;;;;;;;4.16;100.00;96366.94;5036556;28;20204;-78
2022/01/30 03:04:45;;;;;;;2.70;1.57;;;;;;;4.12;100.00;96368.03;5036373;28;20570;-78
2022/01/30 03:07:10;;;;;;;1.97;1.60;;;;;;;4.12;100.00;96368.03;5037028;28;20223;-80
2022/01/30 03:09:35;;;;;;;2.90;1.77;;;;;;;4.11;100.00;96369.78;5037083;28;20197;-80
2022/01/30 03:12:02;;;;;;;2.53;2.20;;;;;;;4.04;100.00;96360.75;5036822;28;20179;-80
2022/01/30 03:14:27;;;;;;;2.70;1.97;;;;;;;4.09;100.00;96371.59;5019920;28;20883;-80
2022/01/30 03:16:53;;;;;;;5.10;2.20;;;;;;;4.12;100.00;96379.13;5020376;28;20182;-79
2022/01/30 03:19:19;;;;;;;4.53;2.03;;;;;;;4.14;100.00;96376.47;5037563;28;20264;-79
2022/01/30 03:21:44;;;;;;;5.67;2.00;;;;;;;4.09;100.00;96391.34;5020382;28;20273;-79
2022/01/30 03:24:09;;;;;;;4.20;2.00;;;;;;;4.11;100.00;96394.66;5037086;28;20231;-79
2022/01/30 03:26:38;;;;;;;7.27;2.40;;;;;;;4.15;100.00;96406.41;5037239;28;20364;-80
2022/01/30 03:29:06;;;;;;;3.83;2.10;;;;;;;4.08;100.00;96402.56;5037776;28;20198;-79
2022/01/30 03:31:34;;;;;;;5.53;2.10;;;;;;;4.03;100.00;96399.41;5036710;28;20302;-80
2022/01/30 03:33:59;;;;;;;4.53;2.17;;;;;;;4.08;100.00;96411.09;5036952;28;20175;-79
2022/01/30 03:36:24;;;;;;;2.70;2.10;;;;;;;4.13;100.00;96410.81;5036860;28;20185;-79
2022/01/30 03:38:50;;;;;;;4.03;2.70;;;;;;;4.19;100.00;96423.31;5036973;28;20202;-80
2022/01/30 03:41:15;;;;;;;5.13;2.90;;;;;;;4.19;100.00;96424.16;5036518;28;20185;-79
2022/01/30 03:43:40;;;;;;;4.27;2.17;;;;;;;4.16;100.00;96424.34;5036854;28;20202;-80
2022/01/30 03:46:06;;;;;;;5.47;2.63;;;;;;;4.21;100.00;96422.31;5036922;28;20180;-80
2022/01/30 03:48:31;;;;;;;5.20;3.43;;;;;;;4.15;100.00;96425.25;5036959;28;20177;-79
2022/01/30 03:50:56;;;;;;;4.67;3.03;;;;;;;4.06;100.00;96433.44;5020459;28;20194;-80
2022/01/30 03:53:21;;;;;;;8.27;3.10;;;;;;;4.11;100.00;96428.91;5036265;28;20200;-79
2022/01/30 03:55:47;;;;;;;5.80;3.27;;;;;;;4.13;100.00;96436.50;5036549;28;20206;-80
2022/01/30 03:58:12;;;;;;;6.50;3.20;;;;;;;4.09;100.00;96435.88;5036039;28;20191;-80
2022/01/30 04:00:37;;;;;;;8.17;3.40;;;;;;;4.10;100.00;96434.13;5036540;28;20198;-79
2022/01/30 04:03:03;;;;;;;8.67;4.10;;;;;;;4.05;100.00;96431.81;5037018;28;20567;-79
2022/01/30 04:05:28;;;;;;;9.10;4.30;;;;;;;4.10;100.00;96437.53;5037536;28;20218;-80
2022/01/30 04:07:53;;;;;;;8.47;3.20;;;;;;;4.13;100.00;96429.63;5036739;28;20182;-80
2022/01/30 04:10:19;;;;;;;10.07;4.20;;;;;;;4.00;100.00;96427.84;5036479;28;20205;-80
2022/01/30 04:12:44;;;;;;;8.37;3.53;;;;;;;4.01;100.00;96430.34;5037079;28;20235;-80
2022/01/30 04:15:10;;;;;;;10.53;3.83;;;;;;;4.01;100.00;96435.47;5036913;28;20245;-80
2022/01/30 04:17:36;;;;;;;7.83;3.80;;;;;;;3.97;100.00;96439.09;5053503;28;20182;-79
2022/01/30 04:20:01;;;;;;;5.87;3.60;;;;;;;3.98;100.00;96445.94;5021102;28;20200;-80
2022/01/30 04:22:27;;;;;;;4.67;3.10;;;;;;;3.99;100.00;96442.44;5036761;28;20199;-79
2022/01/30 04:24:52;;;;;;;9.80;4.50;;;;;;;3.91;100.00;96444.63;5037595;28;20196;-79
2022/01/30 04:27:20;;;;;;;5.90;3.67;;;;;;;3.91;100.00;96449.75;5021660;28;20212;-79
2022/01/30 04:29:45;;;;;;;6.33;4.07;;;;;;;3.89;100.00;96456.72;5037518;28;20222;-80
2022/01/30 04:32:13;;;;;;;6.83;4.10;;;;;;;3.84;100.00;96456.97;5037138;28;20180;-80
2022/01/30 04:34:39;;;;;;;7.37;4.03;;;;;;;3.79;100.00;96456.38;5038140;28;20179;-80
2022/01/30 04:37:12;;;;;;;6.73;3.97;;;;;;;3.77;100.00;96462.50;5054962;28;20185;-80
2022/01/30 04:59:11;;;;;;;9.73;5.20;;;;;;;3.78;100.00;96464.16;5036094;28;20182;-80
2022/01/30 05:01:13;;;;;;;11.17;4.97;;;;;;;3.68;100.00;96466.41;5031451;28;20188;-79
2022/01/30 05:03:53;;;;;;;14.17;4.83;;;;;;;3.70;100.00;96467.97;5035302;28;20210;-79
2022/01/30 05:06:29;;;;;;;13.87;4.97;;;;;;;3.66;100.00;96455.41;5036264;28;20174;-80
2022/01/30 05:08:54;;;;;;;14.37;4.57;;;;;;;3.66;100.00;96463.09;5020862;28;20194;-79
2022/01/30 05:11:20;;;;;;;12.90;4.63;;;;;;;3.59;100.00;96460.03;5035132;28;20194;-79
2022/01/30 05:13:47;;;;;;;8.30;4.27;;;;;;;3.69;100.00;96460.34;5052480;28;20193;-79
2022/01/30 05:16:13;;;;;;;10.57;5.00;;;;;;;3.63;100.00;96461.53;5045938;28;20180;-80
2022/01/30 05:18:38;;;;;;;10.23;4.03;;;;;;;3.58;100.00;96460.94;5044348;28;20244;-80
2022/01/30 05:21:04;;;;;;;12.43;4.30;;;;;;;3.65;100.00;96467.41;5034610;28;20199;-80
2022/01/30 05:23:29;;;;;;;9.07;3.93;;;;;;;3.61;100.00;96465.09;5034147;28;20726;-80
2022/01/30 05:25:55;;;;;;;15.37;3.90;;;;;;;3.58;100.00;96462.69;5017902;28;20179;-80
2022/01/30 05:28:22;;;;;;;13.63;3.47;;;;;;;3.63;99.37;96471.00;5035039;28;20354;-80
2022/01/30 05:30:48;;;;;;;12.63;3.77;;;;;;;3.54;98.99;96474.88;5018300;28;20563;-80
2022/01/30 05:33:13;;;;;;;9.67;3.97;;;;;;;3.55;98.20;96483.41;5034686;28;20186;-80
2022/01/30 05:35:39;;;;;;;6.70;4.60;;;;;;;3.53;98.17;96501.44;5019404;28;20178;-79
2022/01/30 05:38:05;;;;;;;13.37;3.90;;;;;;;3.41;98.08;96494.41;5035986;28;20184;-80
2022/01/30 05:40:32;;;;;;;9.40;4.27;;;;;;;3.42;98.03;96503.75;5034854;28;20233;-80
2022/01/30 05:42:57;;;;;;;9.10;3.53;;;;;;;3.36;98.93;96509.22;5034997;28;20211;-79
2022/01/30 05:47:55;;;;;;;11.50;3.97;;;;;;;3.22;99.63;96507.38;5034894;28;20286;-79
2022/01/30 05:50:21;;;;;;;12.07;4.50;;;;;;;3.16;99.42;96519.69;5035236;28;20210;-80
2022/01/30 05:52:46;;;;;;;6.70;3.37;;;;;;;3.05;99.08;96499.72;5034699;28;20221;-79
2022/01/30 05:55:11;;;;;;;13.93;3.47;;;;;;;3.04;98.78;96513.44;5036242;28;20175;-80
2022/01/30 05:57:37;;;;;;;12.13;3.33;;;;;;;2.95;99.22;96508.78;5035365;28;20170;-79
2022/01/30 06:00:05;;;;;;;5.63;3.43;;;;;;;2.90;98.85;96508.19;5036259;28;20567;-79
2022/01/30 06:02:31;;;;;;;10.80;3.80;;;;;;;2.75;99.20;96517.50;5034229;28;20210;-79
2022/01/30 06:04:56;;;;;;;12.40;3.60;;;;;;;2.72;98.98;96520.19;5036836;28;20179;-80
2022/01/30 06:07:27;;;;;;;10.33;3.67;;;;;;;2.72;98.97;96533.00;5035529;28;20672;-79
2022/01/30 06:09:52;;;;;;;11.10;3.57;;;;;;;2.68;98.63;96534.91;5035498;28;20245;-79
2022/01/30 06:12:18;;;;;;;13.57;3.47;;;;;;;2.67;98.78;96537.56;5033870;28;20174;-79
2022/01/30 06:14:45;;;;;;;11.03;4.13;;;;;;;2.60;99.73;96543.88;5034944;28;20202;-79
2022/01/30 06:17:10;;;;;;;9.63;3.67;;;;;;;2.63;99.30;96549.69;5035807;28;20547;-80
2022/01/30 06:19:36;;;;;;;16.00;3.70;;;;;;;2.58;100.00;96550.81;5036405;28;20198;-80
2022/01/30 06:22:01;;;;;;;6.53;3.63;;;;;;;2.50;100.00;96553.75;5034387;28;20227;-80
2022/01/30 06:24:26;;;;;;;10.50;4.23;;;;;;;2.53;100.00;96553.59;5034764;28;20186;-80
2022/01/30 06:26:52;;;;;;;12.40;3.73;;;;;;;2.52;100.00;96580.97;5034995;28;20183;-80
2022/01/30 06:29:17;;;;;;;13.50;3.80;;;;;;;2.52;100.00;96563.03;5034804;28;20253;-80
2022/01/30 06:31:42;;;;;;;12.77;4.17;;;;;;;2.51;100.00;96576.75;5034339;28;20194;-80
2022/01/30 06:34:07;;;;;;;12.87;5.07;;;;;;;2.53;100.00;96585.19;5034838;28;20175;-80
2022/01/30 06:36:33;;;;;;;13.63;5.03;;;;;;;2.46;100.00;96588.13;5034746;28;20179;-79
2022/01/30 06:38:58;;;;;;;11.83;4.23;;;;;;;2.37;100.00;96581.69;5028783;28;20210;-79
2022/01/30 06:41:23;;;;;;;12.47;5.13;;;;;;;2.42;100.00;96579.75;5022840;28;20178;-79
2022/01/30 06:43:49;;;;;;;14.63;5.20;;;;;;;2.53;100.00;96579.25;5018552;28;20245;-79
2022/01/30 06:46:15;;;;;;;12.53;4.63;;;;;;;2.47;100.00;96580.38;5046338;28;20210;-79
2022/01/30 06:48:41;;;;;;;19.63;4.97;;;;;;;2.53;100.00;96585.19;5035116;28;20202;-79
2022/01/30 06:51:06;;;;;;;16.67;6.00;;;;;;;2.57;100.00;96577.38;5028321;28;20194;-79
2022/01/30 06:53:32;;;;;;;18.20;5.97;;;;;;;2.50;100.00;96585.34;5058426;28;20170;-79
2022/01/30 06:55:57;;;;;;;13.33;5.83;;;;;;;2.49;100.00;96582.88;5055832;28;20186;-79
2022/01/30 06:58:23;;;;;;;14.67;5.30;;;;;;;2.51;100.00;96591.31;5055144;28;20192;-79
2022/01/30 07:00:48;;;;;;;12.40;5.60;;;;;;;2.50;100.00;96600.75;5054543;28;20255;-80
2022/01/30 07:03:14;;;;;;;9.90;5.27;;;;;;;2.53;100.00;96590.31;5029457;28;20198;-80
2022/01/30 07:05:39;;;;;;;15.33;6.83;;;;;;;2.49;100.00;96596.50;5053558;28;20182;-79
2022/01/30 07:08:04;;;;;;;13.07;6.87;;;;;;;2.51;100.00;96604.97;5054892;28;20182;-79
2022/01/30 07:10:30;;;;;;;13.13;5.40;;;;;;;2.64;100.00;96601.78;5053638;28;20194;-79
2022/01/30 07:12:55;;;;;;;16.03;6.00;;;;;;;2.64;100.00;96602.63;5059969;28;20178;-80
2022/01/30 07:15:20;;;;;;;14.03;5.60;;;;;;;2.66;100.00;96610.28;5065445;28;20242;-80
2022/01/30 07:17:46;;;;;;;16.97;6.07;;;;;;;2.65;100.00;96611.16;5057996;28;20189;-82
2022/01/30 07:20:11;;;;;;;12.63;5.73;;;;;;;2.64;100.00;96619.75;5062871;28;20202;-82
2022/01/30 07:22:37;;;;;;;10.63;4.90;;;;;;;2.72;100.00;96622.78;5045148;28;20255;-83
2022/01/30 07:25:05;;;;;;;13.13;4.90;;;;;;;2.72;100.00;96620.22;5047804;28;20626;-83
2022/01/30 07:27:30;;;;;;;16.50;5.40;;;;;;;2.71;100.00;96621.94;5048062;28;20181;-83
2022/01/30 07:29:56;;;;;;;14.83;5.47;;;;;;;2.66;99.77;96631.63;5047704;28;20202;-84
2022/01/30 07:32:21;;;;;;;15.97;5.10;;;;;;;2.67;99.15;96635.00;5041281;28;20201;-79
2022/01/30 07:34:50;;;;;;;14.73;4.87;;;;;;;2.74;98.69;96638.91;5042074;28;20189;-85
2022/01/30 07:37:15;;;;;;;12.97;5.30;;;;;;;2.76;98.66;96639.69;5043639;28;20182;-80
2022/01/30 07:39:41;;;;;;;13.10;5.13;;;;;;;2.76;98.83;96647.41;5042102;28;20197;-79
2022/01/30 07:42:07;;;;;;;16.97;5.30;;;;;;;2.88;98.55;96651.09;5040993;28;20212;-79
2022/01/30 07:44:32;;;;;;;15.00;5.03;;;;;;;2.83;98.35;96654.72;5041303;28;20208;-80
2022/01/30 07:46:57;;;;;;;16.27;5.07;;;;;;;2.87;98.32;96652.84;5058331;28;20696;-80
2022/01/30 07:49:25;;;;;;;19.13;5.30;;;;;;;2.84;98.70;96656.38;5059069;28;20204;-80
2022/01/30 07:51:51;;;;;;;10.90;4.83;;;;;;;2.83;97.93;96652.16;5057248;28;20182;-80
2022/01/30 07:54:16;;;;;;;18.43;5.30;;;;;;;2.91;97.80;96650.94;5058125;28;20595;-80
2022/01/30 07:56:41;;;;;;;15.63;4.60;;;;;;;2.93;96.84;96646.59;5056971;28;20182;-80
2022/01/30 07:59:07;;;;;;;16.73;5.10;;;;;;;2.92;96.81;96650.91;5053726;28;20206;-78
2022/01/30 08:01:32;;;;;;;13.27;4.37;;;;;;;2.93;97.75;96659.41;5047337;28;20190;-78
2022/01/30 08:03:58;;;;;;;13.37;5.03;;;;;;;2.96;96.73;96664.41;5035662;28;20217;-78
2022/01/30 08:06:23;;;;;;;11.93;4.83;;;;;;;2.97;96.36;96671.19;5036045;28;20186;-80
2022/01/30 08:08:49;;;;;;;16.70;4.50;;;;;;;3.00;95.65;96681.28;5039504;28;20195;-80
2022/01/30 08:11:14;;;;;;;12.37;4.00;;;;;;;2.97;94.77;96684.84;5019888;28;20225;-78
2022/01/30 08:13:39;;;;;;;13.83;4.90;;;;;;;2.96;94.57;96690.88;5037329;28;20181;-79
2022/01/30 08:16:05;;;;;;;13.07;4.50;;;;;;;2.97;94.25;96682.28;5039061;28;20656;-78
2022/01/30 08:18:30;;;;;;;12.23;4.17;;;;;;;3.04;93.66;96688.78;5037275;28;20171;-78
2022/01/30 08:20:56;;;;;;;8.73;3.57;;;;;;;3.04;93.01;96688.78;5037524;28;20261;-77
2022/01/30 08:23:23;;;;;;;12.40;4.13;;;;;;;2.98;93.03;96689.06;5035772;28;20281;-78
2022/01/30 08:25:49;;;;;;;15.10;3.67;;;;;;;3.03;93.64;96692.25;5020425;28;20686;-79
2022/01/30 08:28:15;;;;;;;11.87;3.83;;;;;;;3.10;93.34;96697.94;5037151;28;20238;-79
2022/01/30 08:30:40;;;;;;;15.43;4.03;;;;;;;3.16;93.18;96684.78;5036305;28;20197;-78
2022/01/30 08:33:05;;;;;;;14.10;5.10;;;;;;;3.23;93.44;96693.84;5035785;28;20171;-77
2022/01/30 08:35:31;;;;;;;16.30;4.70;;;;;;;3.24;93.11;96689.53;5019561;28;20175;-80
2022/01/30 08:37:58;;;;;;;14.50;4.27;;;;;;;3.28;92.83;96685.94;5023256;28;20182;-80
2022/01/30 08:40:23;;;;;;;11.83;3.70;;;;;;;3.36;92.59;96683.81;5020821;28;20201;-80
2022/01/30 08:42:49;;;;;;;18.07;4.13;;;;;;;3.49;92.37;96687.44;5051295;28;20688;-79
2022/01/30 08:45:17;;;;;;;12.77;3.70;;;;;;;3.56;92.43;96686.22;5055108;28;20186;-79
2022/01/30 08:47:44;;;;;;;11.87;4.10;;;;;;;3.56;91.37;96681.09;5037822;28;20174;-79
2022/01/30 08:50:11;;;;;;;16.73;4.37;;;;;;;3.66;90.52;96676.31;5054751;28;20718;-80
2022/01/30 08:52:36;;;;;;;13.43;3.53;;;;;;;3.80;90.49;96680.72;5056130;28;20178;-80
2022/01/30 08:55:06;;;;;;;17.13;5.00;;;;;;;3.94;89.55;96679.13;5038721;28;20236;-79
2022/01/30 08:57:32;;;;;;;13.27;3.77;;;;;;;4.10;88.57;96676.59;5055366;28;20181;-79
2022/01/30 08:59:58;;;;;;;14.67;4.70;;;;;;;4.10;89.14;96673.19;5037626;28;20297;-79
2022/01/30 09:02:24;;;;;;;18.87;5.70;;;;;;;4.18;87.38;96674.44;5052867;28;20181;-77
2022/01/30 09:04:49;;;;;;;16.87;5.63;;;;;;;4.06;87.38;96680.22;5053351;28;20561;-79
2022/01/30 09:07:15;;;;;;;15.70;5.10;;;;;;;4.11;87.94;96672.28;5051871;28;20271;-78
2022/01/30 09:09:40;;;;;;;11.53;4.23;;;;;;;4.08;87.19;96672.44;5052449;28;20247;-78
2022/01/30 09:12:06;;;;;;;14.17;4.40;;;;;;;3.97;86.01;96678.13;5050731;28;20582;-77
2022/01/30 09:14:32;;;;;;;12.87;4.77;;;;;;;3.56;86.51;96673.38;5037034;28;20671;-78
2022/01/30 09:16:57;;;;;;;17.50;4.50;;;;;;;3.51;87.12;96670.19;5036299;28;20194;-79
2022/01/30 09:19:23;;;;;;;10.70;4.47;;;;;;;3.47;87.14;96665.31;5052197;28;20198;-79
2022/01/30 09:21:48;;;;;;;11.30;4.23;;;;;;;3.27;87.47;96668.84;5035668;28;20182;-80
2022/01/30 09:24:14;;;;;;;14.63;4.80;;;;;;;3.30;87.44;96663.59;5035334;28;20198;-84
2022/01/30 09:26:40;;;;;;;15.03;4.20;;;;;;;3.46;86.90;96663.66;5055659;28;20204;-81
2022/01/30 09:29:05;;;;;;;16.87;4.80;;;;;;;3.55;87.57;96673.47;5054321;28;20296;-82
2022/01/30 09:31:31;;;;;;;13.90;4.50;;;;;;;3.51;86.75;96664.25;5037891;28;20185;-82
2022/01/30 09:33:56;;;;;;;10.67;4.70;;;;;;;3.45;87.52;96664.56;5037263;28;20177;-81
2022/01/30 09:36:21;;;;;;;15.50;5.80;;;;;;;3.53;86.76;96676.09;5053972;28;20185;-82
2022/01/30 09:38:46;;;;;;;14.10;4.53;;;;;;;3.73;86.01;96672.53;5037855;28;20194;-81
2022/01/30 09:41:12;;;;;;;11.97;3.33;;;;;;;3.60;85.25;96677.44;5053248;28;20193;-80
2022/01/30 09:43:38;;;;;;;11.23;3.57;;;;;;;3.69;84.59;96674.41;5036913;28;20202;-80
2022/01/30 09:46:03;;;;;;;17.40;4.93;;;;;;;3.81;83.77;96675.53;5037833;28;20191;-80
2022/01/30 09:48:34;;;;;;;13.97;4.13;;;;;;;3.90;84.11;96669.94;5053770;28;20269;-82
2022/01/30 09:51:00;;;;;;;17.07;4.27;;;;;;;3.97;82.85;96670.41;5037965;28;20186;-82
2022/01/30 09:53:25;;;;;;;13.60;3.63;;;;;;;3.74;83.15;96666.47;5052478;28;20182;-81
2022/01/30 09:55:50;;;;;;;15.23;3.83;;;;;;;3.53;80.23;96683.78;5036657;28;20185;-81
2022/01/30 09:58:16;;;;;;;11.70;3.73;;;;;;;3.54;81.34;96675.19;5054082;28;20222;-81
2022/01/30 10:00:41;;;;;;;16.10;3.90;;;;;;;3.61;81.11;96673.97;5054314;28;20190;-81
2022/01/30 10:03:06;;;;;;;14.27;3.90;;;;;;;3.46;81.60;96668.78;5035842;28;20200;-81
2022/01/30 10:05:35;;;;;;;14.50;3.73;;;;;;;3.48;81.64;96677.25;5052785;28;20548;-81
2022/01/30 10:08:02;;;;;;;15.67;3.63;;;;;;;3.51;82.34;96672.78;5036218;28;20185;-81
2022/01/30 10:10:29;;;;;;;15.13;4.10;;;;;;;3.61;82.05;96668.81;5035301;28;20194;-81
2022/01/30 10:13:05;;;;;;;15.27;3.67;;;;;;;3.73;81.97;96681.97;5050571;28;20174;-81
2022/01/30 10:15:48;;;;;;;18.50;4.23;;;;;;;3.77;82.19;96684.28;5050992;28;20212;-79
2022/01/30 10:18:13;;;;;;;17.10;3.70;;;;;;;3.81;82.00;96672.97;5049672;28;20253;-80
2022/01/30 10:20:40;;;;;;;12.27;4.47;;;;;;;3.85;82.47;96677.03;5022755;28;20612;-81
2022/01/30 10:23:09;;;;;;;16.33;4.07;;;;;;;3.91;82.09;96675.88;5033212;28;20233;-80
2022/01/30 10:25:40;;;;;;;14.57;3.67;;;;;;;3.90;81.17;96685.34;5023187;28;20170;-82
2022/01/30 10:28:13;;;;;;;12.10;3.87;;;;;;;3.78;82.42;96685.94;5043385;28;20182;-80
2022/01/30 10:30:50;;;;;;;18.30;4.13;;;;;;;3.86;81.56;96681.25;5037696;28;20194;-81
2022/01/30 10:33:17;;;;;;;16.17;4.23;;;;;;;3.96;81.07;96679.03;5046921;28;20209;-81
2022/01/30 10:35:56;;;;;;;16.80;4.50;;;;;;;4.00;80.11;96682.28;5055726;28;20167;-82
2022/01/30 10:38:22;;;;;;;13.90;4.53;;;;;;;4.02;79.74;96673.59;5070313;28;20246;-82
2022/01/30 10:41:11;;;;;;;13.17;4.57;;;;;;;3.99;79.57;96676.31;5068858;28;20663;-81
2022/01/30 10:43:56;;;;;;;21.10;4.13;;;;;;;4.08;77.41;96683.56;5061448;28;20198;-81
2022/01/30 10:46:24;;;;;;;15.53;4.57;;;;;;;4.07;77.98;96681.91;5059329;28;20181;-82
2022/01/30 10:49:22;;;;;;;18.23;5.07;;;;;;;4.17;77.30;96690.78;5041204;28;20211;-85
2022/01/30 10:51:58;;;;;;;17.50;4.37;;;;;;;4.15;78.19;96678.91;5051460;28;20281;-81
2022/01/30 10:54:29;;;;;;;12.60;3.70;;;;;;;4.21;77.69;96689.69;5058592;28;20181;-82
2022/01/30 10:57:11;;;;;;;17.63;4.27;;;;;;;4.18;77.13;96691.63;5058077;28;20249;-82
2022/01/30 10:59:42;;;;;;;12.27;3.87;;;;;;;3.98;77.34;96692.66;5060615;28;20264;-82
2022/01/30 11:02:19;;;;;;;15.80;3.77;;;;;;;3.87;78.12;96698.31;5061881;28;20695;-81
2022/01/30 11:04:47;;;;;;;12.37;3.90;;;;;;;3.77;77.41;96689.44;5062432;28;20593;-79
2022/01/30 11:07:15;;;;;;;20.90;4.47;;;;;;;3.80;77.48;96696.16;5045476;28;20174;-79
2022/01/30 11:09:53;;;;;;;14.80;5.13;;;;;;;3.81;76.06;96683.25;5041285;28;20565;-85
2022/01/30 11:12:29;;;;;;;17.27;3.67;;;;;;;3.91;76.40;96681.03;5044563;28;20207;-82
2022/01/30 11:15:05;;;;;;;13.47;3.70;;;;;;;3.94;76.53;96676.56;5045910;28;20554;-80
2022/01/30 11:17:31;;;;;;;12.43;3.50;;;;;;;3.98;76.22;96682.38;5061425;28;20154;-80
2022/01/30 11:19:57;;;;;;;13.47;3.83;;;;;;;3.93;75.98;96677.47;5045227;28;20668;-81
2022/01/30 11:22:23;;;;;;;13.37;3.70;;;;;;;4.09;74.30;96682.66;5058972;28;20178;-82
2022/01/30 11:24:55;;;;;;;12.90;3.93;;;;;;;4.03;75.05;96680.38;5044311;28;20171;-82
2022/01/30 11:27:22;;;;;;;16.37;4.03;;;;;;;4.16;74.50;96691.69;5060903;28;20173;-81
2022/01/30 11:29:48;;;;;;;15.70;4.13;;;;;;;4.23;75.35;96689.63;5043678;28;20198;-80
2022/01/30 11:32:15;;;;;;;10.47;3.20;;;;;;;4.35;74.60;96701.00;5060392;28;20182;-80
2022/01/30 11:34:42;;;;;;;11.67;3.80;;;;;;;4.22;71.55;96699.06;5043696;28;20581;-80
2022/01/30 11:37:08;;;;;;;10.60;3.70;;;;;;;3.94;70.83;96698.84;5060075;28;20179;-80
2022/01/30 11:39:37;;;;;;;13.87;3.50;;;;;;;3.88;71.18;96686.31;5043506;28;20206;-82
2022/01/30 11:42:18;;;;;;;9.40;3.63;;;;;;;3.87;71.86;96687.22;5043346;28;20224;-82
2022/01/30 11:44:45;;;;;;;17.60;3.80;;;;;;;3.89;71.13;96688.00;5044293;28;20193;-81
2022/01/30 11:47:10;;;;;;;12.80;3.73;;;;;;;3.94;70.71;96691.13;5060455;28;20185;-82
2022/01/30 11:49:55;;;;;;;9.33;3.23;;;;;;;3.94;70.80;96686.00;5060168;28;20244;-81
2022/01/30 11:52:53;;;;;;;13.17;3.60;;;;;;;3.94;70.13;96688.56;5059936;28;20176;-82
2022/01/30 11:55:49;;;;;;;12.10;3.67;;;;;;;4.21;69.98;96687.13;5042976;28;20182;-80
2022/01/30 11:58:30;;;;;;;9.10;3.13;;;;;;;4.26;70.09;96685.16;5059004;28;20180;-80
2022/01/30 12:00:55;;;;;;;14.70;3.70;;;;;;;4.28;69.87;96674.78;5061100;28;20170;-81
2022/01/30 12:03:26;;;;;;;11.30;3.80;;;;;;;4.51;69.47;96676.13;5042167;28;20574;-81
2022/01/30 12:05:52;;;;;;;9.93;2.90;;;;;;;4.43;68.36;96670.56;5043399;28;20211;-81
2022/01/30 12:08:41;;;;;;;14.63;3.70;;;;;;;4.55;67.28;96657.88;5061082;28;20186;-78
2022/01/30 12:11:35;;;;;;;10.73;2.93;;;;;;;4.79;66.52;96663.41;5060644;28;20278;-80
2022/01/30 12:14:04;;;;;;;13.83;3.40;;;;;;;4.78;65.00;96645.50;5061552;28;20172;-79
2022/01/30 12:17:00;;;;;;;11.73;3.80;;;;;;;4.64;64.12;96643.66;5043456;28;20359;-80
2022/01/30 12:19:39;;;;;;;12.70;3.00;;;;;;;4.32;65.47;96637.69;5060933;28;20241;-80
2022/01/30 12:22:16;;;;;;;9.03;3.10;;;;;;;4.18;66.46;96655.63;5060094;28;20176;-81
2022/01/30 12:24:42;;;;;;;12.50;3.07;;;;;;;3.98;66.04;96651.53;5059010;28;20182;-80
2022/01/30 12:27:07;;;;;;;13.37;3.43;;;;;;;4.11;67.11;96651.72;5041777;28;20267;-80
2022/01/30 12:29:37;;;;;;;8.47;2.90;;;;;;;4.02;66.15;96641.91;5058576;28;20241;-79